sensor_id;sensor_type;location;lat;lon;timestamp;P1;durP1;ratioP1;P2;durP2;ratioP2
23472;SDS011;11909;52.516;13.564;2022-11-20T00:01:06;24.95;;;13.98;;
23472;SDS011;11909;52.516;13.564;2022-11-20T00:03:34;24.08;;;13.98;;
23472;SDS011;11909;52.516;13.564;2022-11-20T00:06:01;20.13;;;13.50;;
23472;SDS011;11909;52.516;13.564;2022-11-20T00:08:29;19.35;;;12.93;;
23472;SDS011;11909;52.516;13.564;2022-11-20T00:10:56;21.35;;;13.25;;
23472;SDS011;11909;52.516;13.564;2022-11-20T00:13:22;21.35;;;13.85;;
23472;SDS011;11909;52.516;13.564;2022-11-20T00:15:56;20.92;;;13.32;;
23472;SDS011;11909;52.516;13.564;2022-11-20T00:18:23;19.08;;;12.70;;
23472;SDS011;11909;52.516;13.564;2022-11-20T00:20:50;19.48;;;12.93;;
23472;SDS011;11909;52.516;13.564;2022-11-20T00:23:16;21.10;;;12.88;;
23472;SDS011;11909;52.516;13.564;2022-11-20T00:25:44;19.13;;;12.93;;
23472;SDS011;11909;52.516;13.564;2022-11-20T00:28:11;21.35;;;13.88;;
23472;SDS011;11909;52.516;13.564;2022-11-20T00:30:37;22.42;;;13.13;;
23472;SDS011;11909;52.516;13.564;2022-11-20T00:33:04;18.88;;;12.93;;
23472;SDS011;11909;52.516;13.564;2022-11-20T00:35:30;22.38;;;13.07;;
23472;SDS011;11909;52.516;13.564;2022-11-20T00:37:57;21.15;;;13.35;;
23472;SDS011;11909;52.516;13.564;2022-11-20T00:40:24;18.55;;;12.88;;
23472;SDS011;11909;52.516;13.564;2022-11-20T00:42:51;20.45;;;12.40;;
23472;SDS011;11909;52.516;13.564;2022-11-20T00:45:18;20.50;;;12.80;;
23472;SDS011;11909;52.516;13.564;2022-11-20T00:47:45;22.08;;;13.57;;
23472;SDS011;11909;52.516;13.564;2022-11-20T00:50:11;18.88;;;12.70;;
23472;SDS011;11909;52.516;13.564;2022-11-20T00:52:38;20.10;;;13.13;;
23472;SDS011;11909;52.516;13.564;2022-11-20T00:55:05;22.85;;;13.63;;
23472;SDS011;11909;52.516;13.564;2022-11-20T00:57:31;20.63;;;13.15;;
23472;SDS011;11909;52.516;13.564;2022-11-20T00:59:59;20.27;;;12.75;;
23472;SDS011;11909;52.516;13.564;2022-11-20T01:02:26;19.35;;;12.63;;
23472;SDS011;11909;52.516;13.564;2022-11-20T01:04:52;23.15;;;13.23;;
23472;SDS011;11909;52.516;13.564;2022-11-20T01:07:19;18.15;;;12.38;;
23472;SDS011;11909;52.516;13.564;2022-11-20T01:09:46;21.20;;;13.60;;
23472;SDS011;11909;52.516;13.564;2022-11-20T01:12:12;23.08;;;12.50;;
23472;SDS011;11909;52.516;13.564;2022-11-20T01:14:39;17.80;;;12.10;;
23472;SDS011;11909;52.516;13.564;2022-11-20T01:17:07;20.50;;;12.13;;
23472;SDS011;11909;52.516;13.564;2022-11-20T01:19:33;22.00;;;13.95;;
23472;SDS011;11909;52.516;13.564;2022-11-20T01:22:00;20.10;;;12.80;;
23472;SDS011;11909;52.516;13.564;2022-11-20T01:24:26;20.13;;;13.45;;
23472;SDS011;11909;52.516;13.564;2022-11-20T01:26:53;21.70;;;13.68;;
23472;SDS011;11909;52.516;13.564;2022-11-20T01:29:20;23.13;;;13.73;;
23472;SDS011;11909;52.516;13.564;2022-11-20T01:31:48;23.25;;;13.35;;
23472;SDS011;11909;52.516;13.564;2022-11-20T01:34:17;19.55;;;12.73;;
23472;SDS011;11909;52.516;13.564;2022-11-20T01:36:45;23.02;;;13.10;;
23472;SDS011;11909;52.516;13.564;2022-11-20T01:39:12;20.50;;;12.80;;
23472;SDS011;11909;52.516;13.564;2022-11-20T01:41:41;23.60;;;14.50;;
23472;SDS011;11909;52.516;13.564;2022-11-20T01:44:43;20.63;;;12.85;;
23472;SDS011;11909;52.516;13.564;2022-11-20T01:47:16;21.67;;;13.45;;
23472;SDS011;11909;52.516;13.564;2022-11-20T01:49:49;20.45;;;13.75;;
23472;SDS011;11909;52.516;13.564;2022-11-20T01:52:19;20.63;;;12.93;;
23472;SDS011;11909;52.516;13.564;2022-11-20T01:57:18;22.85;;;13.68;;
23472;SDS011;11909;52.516;13.564;2022-11-20T01:59:47;21.60;;;13.23;;
23472;SDS011;11909;52.516;13.564;2022-11-20T02:02:20;23.00;;;14.15;;
23472;SDS011;11909;52.516;13.564;2022-11-20T02:04:48;25.02;;;14.07;;
23472;SDS011;11909;52.516;13.564;2022-11-20T02:07:17;22.85;;;14.45;;
23472;SDS011;11909;52.516;13.564;2022-11-20T02:09:45;21.65;;;14.38;;
23472;SDS011;11909;52.516;13.564;2022-11-20T02:12:12;22.05;;;13.45;;
23472;SDS011;11909;52.516;13.564;2022-11-20T02:17:19;19.88;;;13.27;;
23472;SDS011;11909;52.516;13.564;2022-11-20T02:19:46;21.45;;;13.48;;
23472;SDS011;11909;52.516;13.564;2022-11-20T02:22:16;21.48;;;13.70;;
23472;SDS011;11909;52.516;13.564;2022-11-20T02:24:50;19.67;;;13.27;;
23472;SDS011;11909;52.516;13.564;2022-11-20T02:27:17;21.60;;;13.27;;
23472;SDS011;11909;52.516;13.564;2022-11-20T02:29:45;24.45;;;13.52;;
23472;SDS011;11909;52.516;13.564;2022-11-20T02:32:19;19.20;;;13.35;;
23472;SDS011;11909;52.516;13.564;2022-11-20T02:34:47;20.55;;;13.48;;
23472;SDS011;11909;52.516;13.564;2022-11-20T02:37:14;20.25;;;12.68;;
23472;SDS011;11909;52.516;13.564;2022-11-20T02:39:42;19.88;;;12.70;;
23472;SDS011;11909;52.516;13.564;2022-11-20T02:42:13;24.15;;;14.07;;
23472;SDS011;11909;52.516;13.564;2022-11-20T02:44:40;20.73;;;13.57;;
23472;SDS011;11909;52.516;13.564;2022-11-20T02:47:06;25.25;;;14.43;;
23472;SDS011;11909;52.516;13.564;2022-11-20T02:49:33;20.60;;;13.50;;
23472;SDS011;11909;52.516;13.564;2022-11-20T02:52:00;20.83;;;13.70;;
23472;SDS011;11909;52.516;13.564;2022-11-20T02:54:27;21.15;;;13.35;;
23472;SDS011;11909;52.516;13.564;2022-11-20T02:56:53;23.83;;;14.00;;
23472;SDS011;11909;52.516;13.564;2022-11-20T02:59:21;22.27;;;13.40;;
23472;SDS011;11909;52.516;13.564;2022-11-20T03:01:48;22.05;;;13.52;;
23472;SDS011;11909;52.516;13.564;2022-11-20T03:04:15;21.27;;;13.38;;
23472;SDS011;11909;52.516;13.564;2022-11-20T03:06:41;22.75;;;14.80;;
23472;SDS011;11909;52.516;13.564;2022-11-20T03:09:08;24.40;;;14.10;;
23472;SDS011;11909;52.516;13.564;2022-11-20T03:11:34;23.52;;;14.48;;
23472;SDS011;11909;52.516;13.564;2022-11-20T03:14:02;22.75;;;14.02;;
23472;SDS011;11909;52.516;13.564;2022-11-20T03:16:30;22.35;;;13.85;;
23472;SDS011;11909;52.516;13.564;2022-11-20T03:18:58;22.85;;;13.35;;
23472;SDS011;11909;52.516;13.564;2022-11-20T03:21:25;21.63;;;14.20;;
23472;SDS011;11909;52.516;13.564;2022-11-20T03:23:52;24.35;;;14.98;;
23472;SDS011;11909;52.516;13.564;2022-11-20T03:26:20;22.80;;;13.77;;
23472;SDS011;11909;52.516;13.564;2022-11-20T03:28:48;23.77;;;14.13;;
23472;SDS011;11909;52.516;13.564;2022-11-20T03:31:16;24.35;;;13.80;;
23472;SDS011;11909;52.516;13.564;2022-11-20T03:33:46;23.30;;;14.13;;
23472;SDS011;11909;52.516;13.564;2022-11-20T03:36:14;21.27;;;13.73;;
23472;SDS011;11909;52.516;13.564;2022-11-20T03:38:42;21.80;;;13.93;;
23472;SDS011;11909;52.516;13.564;2022-11-20T03:41:10;23.38;;;14.70;;
23472;SDS011;11909;52.516;13.564;2022-11-20T03:43:38;22.20;;;14.55;;
23472;SDS011;11909;52.516;13.564;2022-11-20T03:46:05;23.25;;;14.15;;
23472;SDS011;11909;52.516;13.564;2022-11-20T03:48:33;23.65;;;14.63;;
23472;SDS011;11909;52.516;13.564;2022-11-20T03:51:11;23.13;;;13.23;;
23472;SDS011;11909;52.516;13.564;2022-11-20T03:53:38;24.00;;;15.13;;
23472;SDS011;11909;52.516;13.564;2022-11-20T03:56:05;22.10;;;14.80;;
23472;SDS011;11909;52.516;13.564;2022-11-20T03:58:33;24.08;;;15.25;;
23472;SDS011;11909;52.516;13.564;2022-11-20T04:01:04;23.42;;;13.93;;
23472;SDS011;11909;52.516;13.564;2022-11-20T04:03:32;22.33;;;13.18;;
23472;SDS011;11909;52.516;13.564;2022-11-20T04:06:01;24.98;;;14.23;;
23472;SDS011;11909;52.516;13.564;2022-11-20T04:08:29;26.10;;;15.07;;
23472;SDS011;11909;52.516;13.564;2022-11-20T04:10:56;23.75;;;14.25;;
23472;SDS011;11909;52.516;13.564;2022-11-20T04:13:23;22.70;;;15.07;;
23472;SDS011;11909;52.516;13.564;2022-11-20T04:15:49;24.67;;;14.15;;
23472;SDS011;11909;52.516;13.564;2022-11-20T04:18:16;21.20;;;14.43;;
23472;SDS011;11909;52.516;13.564;2022-11-20T04:20:42;21.75;;;14.00;;
23472;SDS011;11909;52.516;13.564;2022-11-20T04:23:09;22.10;;;14.70;;
23472;SDS011;11909;52.516;13.564;2022-11-20T04:25:37;22.73;;;14.82;;
23472;SDS011;11909;52.516;13.564;2022-11-20T04:28:03;23.85;;;15.05;;
23472;SDS011;11909;52.516;13.564;2022-11-20T04:30:30;25.20;;;15.32;;
23472;SDS011;11909;52.516;13.564;2022-11-20T04:32:57;23.55;;;15.07;;
23472;SDS011;11909;52.516;13.564;2022-11-20T04:35:23;23.20;;;14.00;;
23472;SDS011;11909;52.516;13.564;2022-11-20T04:37:50;22.13;;;14.70;;
23472;SDS011;11909;52.516;13.564;2022-11-20T04:40:17;25.60;;;15.02;;
23472;SDS011;11909;52.516;13.564;2022-11-20T04:42:45;24.83;;;15.60;;
23472;SDS011;11909;52.516;13.564;2022-11-20T04:45:12;23.00;;;15.20;;
23472;SDS011;11909;52.516;13.564;2022-11-20T04:47:38;26.30;;;15.27;;
23472;SDS011;11909;52.516;13.564;2022-11-20T04:50:05;24.40;;;15.45;;
23472;SDS011;11909;52.516;13.564;2022-11-20T04:52:32;23.98;;;15.80;;
23472;SDS011;11909;52.516;13.564;2022-11-20T04:54:59;24.15;;;14.93;;
23472;SDS011;11909;52.516;13.564;2022-11-20T04:57:25;23.02;;;14.82;;
23472;SDS011;11909;52.516;13.564;2022-11-20T04:59:53;22.50;;;13.82;;
23472;SDS011;11909;52.516;13.564;2022-11-20T05:02:20;25.92;;;15.55;;
23472;SDS011;11909;52.516;13.564;2022-11-20T05:04:47;22.17;;;14.00;;
23472;SDS011;11909;52.516;13.564;2022-11-20T05:07:13;24.67;;;15.13;;
23472;SDS011;11909;52.516;13.564;2022-11-20T05:09:40;23.40;;;15.15;;
23472;SDS011;11909;52.516;13.564;2022-11-20T05:12:06;27.33;;;16.40;;
23472;SDS011;11909;52.516;13.564;2022-11-20T05:14:33;24.90;;;15.82;;
23472;SDS011;11909;52.516;13.564;2022-11-20T05:17:02;25.98;;;16.50;;
23472;SDS011;11909;52.516;13.564;2022-11-20T05:19:28;22.33;;;15.05;;
23472;SDS011;11909;52.516;13.564;2022-11-20T05:21:55;23.45;;;14.13;;
23472;SDS011;11909;52.516;13.564;2022-11-20T05:24:21;25.02;;;16.08;;
23472;SDS011;11909;52.516;13.564;2022-11-20T05:26:48;23.85;;;15.50;;
23472;SDS011;11909;52.516;13.564;2022-11-20T05:29:14;25.15;;;15.80;;
23472;SDS011;11909;52.516;13.564;2022-11-20T05:31:41;26.58;;;15.75;;
23472;SDS011;11909;52.516;13.564;2022-11-20T05:34:09;27.13;;;15.68;;
23472;SDS011;11909;52.516;13.564;2022-11-20T05:36:36;25.10;;;16.25;;
23472;SDS011;11909;52.516;13.564;2022-11-20T05:39:02;23.63;;;15.40;;
23472;SDS011;11909;52.516;13.564;2022-11-20T05:41:29;26.10;;;15.82;;
23472;SDS011;11909;52.516;13.564;2022-11-20T05:43:56;27.27;;;16.23;;
23472;SDS011;11909;52.516;13.564;2022-11-20T05:46:23;24.42;;;16.40;;
23472;SDS011;11909;52.516;13.564;2022-11-20T05:48:50;25.38;;;15.90;;
23472;SDS011;11909;52.516;13.564;2022-11-20T05:51:18;25.52;;;15.52;;
23472;SDS011;11909;52.516;13.564;2022-11-20T05:53:45;27.00;;;16.77;;
23472;SDS011;11909;52.516;13.564;2022-11-20T05:56:12;24.48;;;15.15;;
23472;SDS011;11909;52.516;13.564;2022-11-20T05:58:41;27.15;;;16.05;;
23472;SDS011;11909;52.516;13.564;2022-11-20T06:01:09;26.65;;;16.15;;
23472;SDS011;11909;52.516;13.564;2022-11-20T06:03:38;24.73;;;15.18;;
23472;SDS011;11909;52.516;13.564;2022-11-20T06:06:07;26.55;;;15.88;;
23472;SDS011;11909;52.516;13.564;2022-11-20T06:08:35;26.33;;;16.25;;
23472;SDS011;11909;52.516;13.564;2022-11-20T06:11:05;24.13;;;15.27;;
23472;SDS011;11909;52.516;13.564;2022-11-20T06:13:32;25.02;;;15.98;;
23472;SDS011;11909;52.516;13.564;2022-11-20T06:15:59;20.88;;;14.00;;
23472;SDS011;11909;52.516;13.564;2022-11-20T06:18:27;23.02;;;15.18;;
23472;SDS011;11909;52.516;13.564;2022-11-20T06:21:01;23.15;;;13.95;;
23472;SDS011;11909;52.516;13.564;2022-11-20T06:23:29;25.83;;;14.93;;
23472;SDS011;11909;52.516;13.564;2022-11-20T06:25:58;26.33;;;14.70;;
23472;SDS011;11909;52.516;13.564;2022-11-20T06:28:27;29.48;;;14.98;;
23472;SDS011;11909;52.516;13.564;2022-11-20T06:30:54;22.67;;;14.48;;
23472;SDS011;11909;52.516;13.564;2022-11-20T06:33:20;22.60;;;14.57;;
23472;SDS011;11909;52.516;13.564;2022-11-20T06:35:47;22.92;;;13.75;;
23472;SDS011;11909;52.516;13.564;2022-11-20T06:38:14;21.65;;;14.32;;
23472;SDS011;11909;52.516;13.564;2022-11-20T06:40:40;23.10;;;15.80;;
23472;SDS011;11909;52.516;13.564;2022-11-20T06:43:08;25.60;;;16.02;;
23472;SDS011;11909;52.516;13.564;2022-11-20T06:45:35;25.60;;;15.48;;
23472;SDS011;11909;52.516;13.564;2022-11-20T06:48:02;25.63;;;15.02;;
23472;SDS011;11909;52.516;13.564;2022-11-20T06:50:29;24.10;;;16.10;;
23472;SDS011;11909;52.516;13.564;2022-11-20T06:52:56;23.48;;;14.82;;
23472;SDS011;11909;52.516;13.564;2022-11-20T06:55:22;25.08;;;14.48;;
23472;SDS011;11909;52.516;13.564;2022-11-20T06:57:50;22.15;;;14.82;;
23472;SDS011;11909;52.516;13.564;2022-11-20T07:00:18;22.98;;;14.90;;
23472;SDS011;11909;52.516;13.564;2022-11-20T07:02:44;23.17;;;14.65;;
23472;SDS011;11909;52.516;13.564;2022-11-20T07:05:11;22.95;;;14.43;;
23472;SDS011;11909;52.516;13.564;2022-11-20T07:07:38;24.83;;;14.57;;
23472;SDS011;11909;52.516;13.564;2022-11-20T07:10:05;24.38;;;14.90;;
23472;SDS011;11909;52.516;13.564;2022-11-20T07:12:32;22.55;;;14.18;;
23472;SDS011;11909;52.516;13.564;2022-11-20T07:14:58;23.95;;;14.32;;
23472;SDS011;11909;52.516;13.564;2022-11-20T07:17:26;22.75;;;15.15;;
23472;SDS011;11909;52.516;13.564;2022-11-20T07:19:53;25.65;;;15.18;;
23472;SDS011;11909;52.516;13.564;2022-11-20T07:22:19;21.67;;;13.82;;
23472;SDS011;11909;52.516;13.564;2022-11-20T07:24:46;25.48;;;16.00;;
23472;SDS011;11909;52.516;13.564;2022-11-20T07:27:13;23.13;;;14.73;;
23472;SDS011;11909;52.516;13.564;2022-11-20T07:29:39;23.13;;;14.93;;
23472;SDS011;11909;52.516;13.564;2022-11-20T07:32:06;25.02;;;15.65;;
23472;SDS011;11909;52.516;13.564;2022-11-20T07:34:34;24.73;;;15.05;;
23472;SDS011;11909;52.516;13.564;2022-11-20T07:37:00;23.60;;;15.40;;
23472;SDS011;11909;52.516;13.564;2022-11-20T07:39:27;23.00;;;14.45;;
23472;SDS011;11909;52.516;13.564;2022-11-20T07:41:54;23.02;;;14.13;;
23472;SDS011;11909;52.516;13.564;2022-11-20T07:44:20;24.63;;;15.68;;
23472;SDS011;11909;52.516;13.564;2022-11-20T07:46:47;26.48;;;15.35;;
23472;SDS011;11909;52.516;13.564;2022-11-20T07:49:13;27.02;;;15.95;;
23472;SDS011;11909;52.516;13.564;2022-11-20T07:51:41;21.45;;;14.52;;
23472;SDS011;11909;52.516;13.564;2022-11-20T07:54:08;24.48;;;15.20;;
23472;SDS011;11909;52.516;13.564;2022-11-20T07:56:34;23.60;;;15.77;;
23472;SDS011;11909;52.516;13.564;2022-11-20T07:59:01;22.38;;;14.13;;
23472;SDS011;11909;52.516;13.564;2022-11-20T08:01:27;23.38;;;15.10;;
23472;SDS011;11909;52.516;13.564;2022-11-20T08:03:54;23.38;;;14.82;;
23472;SDS011;11909;52.516;13.564;2022-11-20T08:06:20;22.95;;;15.13;;
23472;SDS011;11909;52.516;13.564;2022-11-20T08:08:48;25.88;;;16.58;;
23472;SDS011;11909;52.516;13.564;2022-11-20T08:11:15;23.33;;;14.98;;
23472;SDS011;11909;52.516;13.564;2022-11-20T08:13:59;24.20;;;14.95;;
23472;SDS011;11909;52.516;13.564;2022-11-20T08:16:41;24.50;;;14.95;;
23472;SDS011;11909;52.516;13.564;2022-11-20T08:19:09;27.33;;;16.33;;
23472;SDS011;11909;52.516;13.564;2022-11-20T08:21:35;26.65;;;15.73;;
23472;SDS011;11909;52.516;13.564;2022-11-20T08:24:04;23.70;;;15.20;;
23472;SDS011;11909;52.516;13.564;2022-11-20T08:26:31;25.88;;;15.63;;
23472;SDS011;11909;52.516;13.564;2022-11-20T08:28:58;25.23;;;15.20;;
23472;SDS011;11909;52.516;13.564;2022-11-20T08:31:25;26.52;;;16.00;;
23472;SDS011;11909;52.516;13.564;2022-11-20T08:33:53;25.77;;;16.60;;
23472;SDS011;11909;52.516;13.564;2022-11-20T08:36:20;28.75;;;15.77;;
23472;SDS011;11909;52.516;13.564;2022-11-20T08:38:47;26.60;;;16.42;;
23472;SDS011;11909;52.516;13.564;2022-11-20T08:41:15;29.52;;;17.40;;
23472;SDS011;11909;52.516;13.564;2022-11-20T08:43:52;26.85;;;17.17;;
23472;SDS011;11909;52.516;13.564;2022-11-20T08:46:21;30.98;;;17.63;;
23472;SDS011;11909;52.516;13.564;2022-11-20T08:48:48;27.88;;;17.15;;
23472;SDS011;11909;52.516;13.564;2022-11-20T08:51:14;29.95;;;16.17;;
23472;SDS011;11909;52.516;13.564;2022-11-20T08:53:41;28.90;;;16.23;;
23472;SDS011;11909;52.516;13.564;2022-11-20T08:56:08;28.63;;;16.17;;
23472;SDS011;11909;52.516;13.564;2022-11-20T08:58:37;29.25;;;16.15;;
23472;SDS011;11909;52.516;13.564;2022-11-20T09:01:04;27.20;;;16.38;;
23472;SDS011;11909;52.516;13.564;2022-11-20T09:03:31;31.33;;;17.92;;
23472;SDS011;11909;52.516;13.564;2022-11-20T09:05:58;28.27;;;17.00;;
23472;SDS011;11909;52.516;13.564;2022-11-20T09:08:25;27.38;;;16.67;;
23472;SDS011;11909;52.516;13.564;2022-11-20T09:10:52;29.20;;;17.30;;
23472;SDS011;11909;52.516;13.564;2022-11-20T09:13:20;26.48;;;16.40;;
23472;SDS011;11909;52.516;13.564;2022-11-20T09:15:48;27.15;;;17.75;;
23472;SDS011;11909;52.516;13.564;2022-11-20T09:18:19;29.00;;;17.08;;
23472;SDS011;11909;52.516;13.564;2022-11-20T09:20:45;27.80;;;16.63;;
23472;SDS011;11909;52.516;13.564;2022-11-20T09:23:12;27.88;;;16.65;;
23472;SDS011;11909;52.516;13.564;2022-11-20T09:25:38;26.23;;;15.85;;
23472;SDS011;11909;52.516;13.564;2022-11-20T09:28:05;29.77;;;16.85;;
23472;SDS011;11909;52.516;13.564;2022-11-20T09:30:32;28.25;;;16.55;;
23472;SDS011;11909;52.516;13.564;2022-11-20T09:32:59;25.90;;;16.25;;
23472;SDS011;11909;52.516;13.564;2022-11-20T09:35:26;25.95;;;16.67;;
23472;SDS011;11909;52.516;13.564;2022-11-20T09:37:53;26.23;;;15.93;;
23472;SDS011;11909;52.516;13.564;2022-11-20T09:40:20;28.80;;;16.42;;
23472;SDS011;11909;52.516;13.564;2022-11-20T09:42:50;27.42;;;16.85;;
23472;SDS011;11909;52.516;13.564;2022-11-20T09:45:24;29.17;;;16.65;;
23472;SDS011;11909;52.516;13.564;2022-11-20T09:48:08;28.48;;;16.48;;
23472;SDS011;11909;52.516;13.564;2022-11-20T09:50:47;28.50;;;15.93;;
23472;SDS011;11909;52.516;13.564;2022-11-20T09:53:22;27.33;;;17.13;;
23472;SDS011;11909;52.516;13.564;2022-11-20T09:56:00;27.10;;;16.75;;
23472;SDS011;11909;52.516;13.564;2022-11-20T09:58:29;27.02;;;16.05;;
23472;SDS011;11909;52.516;13.564;2022-11-20T10:01:00;28.00;;;16.20;;
23472;SDS011;11909;52.516;13.564;2022-11-20T10:03:38;27.63;;;16.65;;
23472;SDS011;11909;52.516;13.564;2022-11-20T10:06:12;23.25;;;15.88;;
23472;SDS011;11909;52.516;13.564;2022-11-20T10:08:43;23.80;;;15.30;;
23472;SDS011;11909;52.516;13.564;2022-11-20T10:11:14;23.67;;;15.32;;
23472;SDS011;11909;52.516;13.564;2022-11-20T10:13:49;26.30;;;15.90;;
23472;SDS011;11909;52.516;13.564;2022-11-20T10:16:23;25.23;;;16.33;;
23472;SDS011;11909;52.516;13.564;2022-11-20T10:19:05;24.75;;;15.45;;
23472;SDS011;11909;52.516;13.564;2022-11-20T10:21:49;25.75;;;15.27;;
23472;SDS011;11909;52.516;13.564;2022-11-20T10:24:30;27.65;;;16.13;;
23472;SDS011;11909;52.516;13.564;2022-11-20T10:27:09;24.65;;;16.42;;
23472;SDS011;11909;52.516;13.564;2022-11-20T10:29:53;23.58;;;14.73;;
23472;SDS011;11909;52.516;13.564;2022-11-20T10:32:28;24.35;;;14.75;;
23472;SDS011;11909;52.516;13.564;2022-11-20T10:35:03;24.85;;;15.88;;
23472;SDS011;11909;52.516;13.564;2022-11-20T10:37:34;27.75;;;16.38;;
23472;SDS011;11909;52.516;13.564;2022-11-20T10:40:14;25.73;;;16.35;;
23472;SDS011;11909;52.516;13.564;2022-11-20T10:42:49;25.20;;;15.02;;
23472;SDS011;11909;52.516;13.564;2022-11-20T10:45:25;23.65;;;15.57;;
23472;SDS011;11909;52.516;13.564;2022-11-20T10:48:11;24.95;;;16.05;;
23472;SDS011;11909;52.516;13.564;2022-11-20T10:50:46;28.13;;;15.35;;
23472;SDS011;11909;52.516;13.564;2022-11-20T10:53:24;26.80;;;16.03;;
23472;SDS011;11909;52.516;13.564;2022-11-20T10:56:06;24.40;;;15.73;;
23472;SDS011;11909;52.516;13.564;2022-11-20T10:58:43;26.05;;;16.40;;
23472;SDS011;11909;52.516;13.564;2022-11-20T11:01:15;25.02;;;16.10;;
23472;SDS011;11909;52.516;13.564;2022-11-20T11:03:44;27.73;;;17.05;;
23472;SDS011;11909;52.516;13.564;2022-11-20T11:06:14;26.42;;;16.63;;
23472;SDS011;11909;52.516;13.564;2022-11-20T11:08:47;26.40;;;16.88;;
23472;SDS011;11909;52.516;13.564;2022-11-20T11:11:19;25.05;;;16.35;;
23472;SDS011;11909;52.516;13.564;2022-11-20T11:13:48;24.60;;;16.60;;
23472;SDS011;11909;52.516;13.564;2022-11-20T11:16:17;25.45;;;16.20;;
23472;SDS011;11909;52.516;13.564;2022-11-20T11:18:47;31.00;;;17.80;;
23472;SDS011;11909;52.516;13.564;2022-11-20T11:21:19;28.63;;;17.65;;
23472;SDS011;11909;52.516;13.564;2022-11-20T11:23:56;26.70;;;16.30;;
23472;SDS011;11909;52.516;13.564;2022-11-20T11:26:25;26.85;;;16.83;;
23472;SDS011;11909;52.516;13.564;2022-11-20T11:28:52;25.83;;;16.17;;
23472;SDS011;11909;52.516;13.564;2022-11-20T11:31:23;26.73;;;15.73;;
23472;SDS011;11909;52.516;13.564;2022-11-20T11:33:51;27.80;;;16.17;;
23472;SDS011;11909;52.516;13.564;2022-11-20T11:36:19;22.80;;;15.10;;
23472;SDS011;11909;52.516;13.564;2022-11-20T11:38:50;22.75;;;15.18;;
23472;SDS011;11909;52.516;13.564;2022-11-20T11:41:20;25.50;;;15.48;;
23472;SDS011;11909;52.516;13.564;2022-11-20T11:46:35;28.73;;;15.70;;
23472;SDS011;11909;52.516;13.564;2022-11-20T11:49:11;24.67;;;15.40;;
23472;SDS011;11909;52.516;13.564;2022-11-20T11:51:56;23.30;;;14.73;;
23472;SDS011;11909;52.516;13.564;2022-11-20T11:54:30;22.60;;;14.90;;
23472;SDS011;11909;52.516;13.564;2022-11-20T11:57:05;24.50;;;15.38;;
23472;SDS011;11909;52.516;13.564;2022-11-20T11:59:39;22.92;;;14.23;;
23472;SDS011;11909;52.516;13.564;2022-11-20T12:02:15;27.55;;;15.45;;
23472;SDS011;11909;52.516;13.564;2022-11-20T12:04:57;27.05;;;14.77;;
23472;SDS011;11909;52.516;13.564;2022-11-20T12:07:29;21.48;;;14.38;;
23472;SDS011;11909;52.516;13.564;2022-11-20T12:10:07;22.15;;;14.02;;
23472;SDS011;11909;52.516;13.564;2022-11-20T12:12:50;26.15;;;14.73;;
23472;SDS011;11909;52.516;13.564;2022-11-20T12:15:26;24.08;;;14.77;;
23472;SDS011;11909;52.516;13.564;2022-11-20T12:17:56;25.60;;;14.38;;
23472;SDS011;11909;52.516;13.564;2022-11-20T12:20:23;22.83;;;14.38;;
23472;SDS011;11909;52.516;13.564;2022-11-20T12:22:55;25.17;;;14.25;;
23472;SDS011;11909;52.516;13.564;2022-11-20T12:25:27;27.77;;;15.00;;
23472;SDS011;11909;52.516;13.564;2022-11-20T12:28:01;23.35;;;15.20;;
23472;SDS011;11909;52.516;13.564;2022-11-20T12:30:41;25.55;;;16.33;;
23472;SDS011;11909;52.516;13.564;2022-11-20T12:33:25;22.08;;;15.18;;
23472;SDS011;11909;52.516;13.564;2022-11-20T12:36:18;26.20;;;15.45;;
23472;SDS011;11909;52.516;13.564;2022-11-20T12:38:56;23.52;;;15.48;;
23472;SDS011;11909;52.516;13.564;2022-11-20T12:41:41;27.33;;;15.18;;
23472;SDS011;11909;52.516;13.564;2022-11-20T12:44:36;24.05;;;14.77;;
23472;SDS011;11909;52.516;13.564;2022-11-20T12:47:33;22.20;;;14.57;;
23472;SDS011;11909;52.516;13.564;2022-11-20T12:50:14;27.13;;;15.70;;
23472;SDS011;11909;52.516;13.564;2022-11-20T12:52:50;24.73;;;14.85;;
23472;SDS011;11909;52.516;13.564;2022-11-20T12:55:25;26.10;;;15.40;;
23472;SDS011;11909;52.516;13.564;2022-11-20T12:58:01;24.95;;;14.88;;
23472;SDS011;11909;52.516;13.564;2022-11-20T13:00:35;22.73;;;13.77;;
23472;SDS011;11909;52.516;13.564;2022-11-20T13:03:14;25.63;;;14.63;;
23472;SDS011;11909;52.516;13.564;2022-11-20T13:05:55;21.98;;;14.02;;
23472;SDS011;11909;52.516;13.564;2022-11-20T13:08:31;23.27;;;15.18;;
23472;SDS011;11909;52.516;13.564;2022-11-20T13:11:03;23.05;;;13.98;;
23472;SDS011;11909;52.516;13.564;2022-11-20T13:13:42;23.08;;;14.32;;
23472;SDS011;11909;52.516;13.564;2022-11-20T13:16:30;23.30;;;14.30;;
23472;SDS011;11909;52.516;13.564;2022-11-20T13:19:02;23.35;;;14.50;;
23472;SDS011;11909;52.516;13.564;2022-11-20T13:21:37;18.63;;;13.05;;
23472;SDS011;11909;52.516;13.564;2022-11-20T13:24:05;23.73;;;14.07;;
23472;SDS011;11909;52.516;13.564;2022-11-20T13:26:33;25.58;;;13.48;;
23472;SDS011;11909;52.516;13.564;2022-11-20T13:29:01;22.40;;;13.35;;
23472;SDS011;11909;52.516;13.564;2022-11-20T13:31:32;20.02;;;13.23;;
23472;SDS011;11909;52.516;13.564;2022-11-20T13:34:01;19.73;;;12.93;;
23472;SDS011;11909;52.516;13.564;2022-11-20T13:36:31;21.42;;;11.45;;
23472;SDS011;11909;52.516;13.564;2022-11-20T13:38:59;18.98;;;11.27;;
23472;SDS011;11909;52.516;13.564;2022-11-20T13:41:27;13.05;;;9.00;;
23472;SDS011;11909;52.516;13.564;2022-11-20T13:44:09;15.77;;;9.77;;
23472;SDS011;11909;52.516;13.564;2022-11-20T13:46:40;14.52;;;9.00;;
23472;SDS011;11909;52.516;13.564;2022-11-20T13:49:09;15.23;;;10.07;;
23472;SDS011;11909;52.516;13.564;2022-11-20T13:51:42;15.38;;;9.38;;
23472;SDS011;11909;52.516;13.564;2022-11-20T13:57:12;13.80;;;8.88;;
23472;SDS011;11909;52.516;13.564;2022-11-20T13:59:56;10.75;;;7.90;;
23472;SDS011;11909;52.516;13.564;2022-11-20T14:02:25;13.02;;;8.98;;
23472;SDS011;11909;52.516;13.564;2022-11-20T14:04:55;15.15;;;9.55;;
23472;SDS011;11909;52.516;13.564;2022-11-20T14:07:25;16.48;;;8.75;;
23472;SDS011;11909;52.516;13.564;2022-11-20T14:09:58;14.40;;;9.07;;
23472;SDS011;11909;52.516;13.564;2022-11-20T14:12:27;14.18;;;9.02;;
23472;SDS011;11909;52.516;13.564;2022-11-20T14:14:58;14.40;;;8.98;;
23472;SDS011;11909;52.516;13.564;2022-11-20T14:17:29;13.85;;;9.02;;
23472;SDS011;11909;52.516;13.564;2022-11-20T14:19:58;11.30;;;8.02;;
23472;SDS011;11909;52.516;13.564;2022-11-20T14:22:27;15.13;;;9.30;;
23472;SDS011;11909;52.516;13.564;2022-11-20T14:25:01;12.15;;;8.32;;
23472;SDS011;11909;52.516;13.564;2022-11-20T14:27:32;15.32;;;8.88;;
23472;SDS011;11909;52.516;13.564;2022-11-20T14:30:02;13.60;;;8.63;;
23472;SDS011;11909;52.516;13.564;2022-11-20T14:32:29;16.23;;;9.52;;
23472;SDS011;11909;52.516;13.564;2022-11-20T14:34:58;16.45;;;9.10;;